sensor_id;sensor_type;location;lat;lon;timestamp;P1;durP1;ratioP1;P2;durP2;ratioP2
29200;SDS011;16244;51.956;12.980;2023-03-29T00:00:54;5.60;;;2.37;;
29200;SDS011;16244;51.956;12.980;2023-03-29T00:03:24;6.50;;;2.37;;
29200;SDS011;16244;51.956;12.980;2023-03-29T00:05:52;3.17;;;2.87;;
29200;SDS011;16244;51.956;12.980;2023-03-29T00:08:23;4.27;;;2.03;;
29200;SDS011;16244;51.956;12.980;2023-03-29T00:10:51;2.00;;;1.90;;
29200;SDS011;16244;51.956;12.980;2023-03-29T00:13:21;2.97;;;2.70;;
29200;SDS011;16244;51.956;12.980;2023-03-29T00:15:49;5.47;;;2.80;;
29200;SDS011;16244;51.956;12.980;2023-03-29T00:18:16;4.43;;;2.13;;
29200;SDS011;16244;51.956;12.980;2023-03-29T00:20:43;11.67;;;2.53;;
29200;SDS011;16244;51.956;12.980;2023-03-29T00:23:11;4.40;;;2.70;;
29200;SDS011;16244;51.956;12.980;2023-03-29T00:25:44;12.17;;;4.17;;
29200;SDS011;16244;51.956;12.980;2023-03-29T00:28:11;5.23;;;3.00;;
29200;SDS011;16244;51.956;12.980;2023-03-29T00:30:39;2.63;;;2.50;;
29200;SDS011;16244;51.956;12.980;2023-03-29T00:33:07;3.20;;;3.00;;
29200;SDS011;16244;51.956;12.980;2023-03-29T00:35:36;8.10;;;2.53;;
29200;SDS011;16244;51.956;12.980;2023-03-29T00:38:04;3.83;;;2.50;;
29200;SDS011;16244;51.956;12.980;2023-03-29T00:40:31;4.33;;;1.77;;
29200;SDS011;16244;51.956;12.980;2023-03-29T00:43:01;3.57;;;2.10;;
29200;SDS011;16244;51.956;12.980;2023-03-29T00:45:28;3.67;;;1.67;;
29200;SDS011;16244;51.956;12.980;2023-03-29T00:47:56;4.80;;;2.20;;
29200;SDS011;16244;51.956;12.980;2023-03-29T00:50:28;2.70;;;2.20;;
29200;SDS011;16244;51.956;12.980;2023-03-29T00:52:59;2.30;;;2.20;;
29200;SDS011;16244;51.956;12.980;2023-03-29T00:55:31;2.20;;;2.00;;
29200;SDS011;16244;51.956;12.980;2023-03-29T00:58:05;2.27;;;1.87;;
29200;SDS011;16244;51.956;12.980;2023-03-29T01:00:36;3.00;;;2.07;;
29200;SDS011;16244;51.956;12.980;2023-03-29T01:03:08;2.03;;;1.50;;
29200;SDS011;16244;51.956;12.980;2023-03-29T01:05:40;5.40;;;2.43;;
29200;SDS011;16244;51.956;12.980;2023-03-29T01:08:12;4.20;;;2.07;;
29200;SDS011;16244;51.956;12.980;2023-03-29T01:10:43;1.87;;;1.70;;
29200;SDS011;16244;51.956;12.980;2023-03-29T01:13:19;2.20;;;2.00;;
29200;SDS011;16244;51.956;12.980;2023-03-29T01:15:52;6.73;;;2.50;;
29200;SDS011;16244;51.956;12.980;2023-03-29T01:18:21;1.67;;;1.37;;
29200;SDS011;16244;51.956;12.980;2023-03-29T01:20:53;5.07;;;1.97;;
29200;SDS011;16244;51.956;12.980;2023-03-29T01:23:35;6.93;;;3.40;;
29200;SDS011;16244;51.956;12.980;2023-03-29T01:26:17;1.97;;;1.70;;
29200;SDS011;16244;51.956;12.980;2023-03-29T01:28:54;1.80;;;1.63;;
29200;SDS011;16244;51.956;12.980;2023-03-29T01:31:28;3.53;;;1.63;;
29200;SDS011;16244;51.956;12.980;2023-03-29T01:34:00;1.97;;;1.50;;
29200;SDS011;16244;51.956;12.980;2023-03-29T01:36:32;1.33;;;1.33;;
29200;SDS011;16244;51.956;12.980;2023-03-29T01:39:05;6.10;;;2.23;;
29200;SDS011;16244;51.956;12.980;2023-03-29T01:41:34;7.37;;;2.50;;
29200;SDS011;16244;51.956;12.980;2023-03-29T01:44:10;3.60;;;1.80;;
29200;SDS011;16244;51.956;12.980;2023-03-29T01:46:44;2.00;;;1.43;;
29200;SDS011;16244;51.956;12.980;2023-03-29T01:49:13;1.53;;;1.17;;
29200;SDS011;16244;51.956;12.980;2023-03-29T01:51:49;3.30;;;1.10;;
29200;SDS011;16244;51.956;12.980;2023-03-29T01:54:21;3.87;;;1.40;;
29200;SDS011;16244;51.956;12.980;2023-03-29T01:56:52;4.80;;;2.03;;
29200;SDS011;16244;51.956;12.980;2023-03-29T01:59:24;5.70;;;1.70;;
29200;SDS011;16244;51.956;12.980;2023-03-29T02:01:55;4.83;;;1.70;;
29200;SDS011;16244;51.956;12.980;2023-03-29T02:04:26;2.70;;;1.23;;
29200;SDS011;16244;51.956;12.980;2023-03-29T02:06:59;8.27;;;2.00;;
29200;SDS011;16244;51.956;12.980;2023-03-29T02:09:28;1.90;;;1.53;;
29200;SDS011;16244;51.956;12.980;2023-03-29T02:11:57;5.67;;;2.20;;
29200;SDS011;16244;51.956;12.980;2023-03-29T02:14:28;2.10;;;1.83;;
29200;SDS011;16244;51.956;12.980;2023-03-29T02:16:55;7.23;;;2.30;;
29200;SDS011;16244;51.956;12.980;2023-03-29T02:19:23;3.47;;;1.97;;
29200;SDS011;16244;51.956;12.980;2023-03-29T02:21:55;5.83;;;1.37;;
29200;SDS011;16244;51.956;12.980;2023-03-29T02:24:28;5.60;;;1.80;;
29200;SDS011;16244;51.956;12.980;2023-03-29T02:26:58;5.03;;;1.97;;
29200;SDS011;16244;51.956;12.980;2023-03-29T02:29:28;4.97;;;1.60;;
29200;SDS011;16244;51.956;12.980;2023-03-29T02:31:57;1.70;;;1.60;;
29200;SDS011;16244;51.956;12.980;2023-03-29T02:34:30;4.43;;;1.53;;
29200;SDS011;16244;51.956;12.980;2023-03-29T02:37:02;2.23;;;1.50;;
29200;SDS011;16244;51.956;12.980;2023-03-29T02:39:35;5.30;;;1.97;;
29200;SDS011;16244;51.956;12.980;2023-03-29T02:42:04;1.47;;;1.37;;
29200;SDS011;16244;51.956;12.980;2023-03-29T02:44:35;2.30;;;1.50;;
29200;SDS011;16244;51.956;12.980;2023-03-29T02:47:04;2.20;;;1.57;;
29200;SDS011;16244;51.956;12.980;2023-03-29T02:49:37;3.33;;;1.53;;
29200;SDS011;16244;51.956;12.980;2023-03-29T02:52:05;5.80;;;2.40;;
29200;SDS011;16244;51.956;12.980;2023-03-29T02:54:37;2.33;;;1.70;;
29200;SDS011;16244;51.956;12.980;2023-03-29T02:57:08;3.50;;;2.07;;
29200;SDS011;16244;51.956;12.980;2023-03-29T02:59:38;5.77;;;1.70;;
29200;SDS011;16244;51.956;12.980;2023-03-29T03:02:08;3.33;;;2.00;;
29200;SDS011;16244;51.956;12.980;2023-03-29T03:04:38;6.93;;;2.27;;
29200;SDS011;16244;51.956;12.980;2023-03-29T03:07:06;5.97;;;2.40;;
29200;SDS011;16244;51.956;12.980;2023-03-29T03:09:34;2.10;;;2.00;;
29200;SDS011;16244;51.956;12.980;2023-03-29T03:12:01;4.33;;;1.40;;
29200;SDS011;16244;51.956;12.980;2023-03-29T03:14:29;6.00;;;2.67;;
29200;SDS011;16244;51.956;12.980;2023-03-29T03:16:58;5.53;;;2.00;;
29200;SDS011;16244;51.956;12.980;2023-03-29T03:19:25;3.37;;;2.13;;
29200;SDS011;16244;51.956;12.980;2023-03-29T03:21:53;2.30;;;1.70;;
29200;SDS011;16244;51.956;12.980;2023-03-29T03:24:21;7.53;;;2.00;;
29200;SDS011;16244;51.956;12.980;2023-03-29T03:26:48;3.87;;;2.10;;
29200;SDS011;16244;51.956;12.980;2023-03-29T03:29:16;2.80;;;1.80;;
29200;SDS011;16244;51.956;12.980;2023-03-29T03:31:45;5.80;;;2.40;;
29200;SDS011;16244;51.956;12.980;2023-03-29T03:34:14;3.07;;;1.90;;
29200;SDS011;16244;51.956;12.980;2023-03-29T03:36:41;7.73;;;2.30;;
29200;SDS011;16244;51.956;12.980;2023-03-29T03:39:09;3.90;;;2.47;;
29200;SDS011;16244;51.956;12.980;2023-03-29T03:41:36;2.27;;;1.93;;
29200;SDS011;16244;51.956;12.980;2023-03-29T03:44:04;2.20;;;1.53;;
29200;SDS011;16244;51.956;12.980;2023-03-29T03:46:31;1.93;;;1.63;;
29200;SDS011;16244;51.956;12.980;2023-03-29T03:48:59;7.97;;;1.73;;
29200;SDS011;16244;51.956;12.980;2023-03-29T03:51:28;6.00;;;2.90;;
29200;SDS011;16244;51.956;12.980;2023-03-29T03:53:56;2.20;;;2.10;;
29200;SDS011;16244;51.956;12.980;2023-03-29T03:56:24;6.93;;;2.20;;
29200;SDS011;16244;51.956;12.980;2023-03-29T03:58:54;5.27;;;2.27;;
29200;SDS011;16244;51.956;12.980;2023-03-29T04:01:22;2.07;;;1.87;;
29200;SDS011;16244;51.956;12.980;2023-03-29T04:03:52;7.13;;;3.47;;
29200;SDS011;16244;51.956;12.980;2023-03-29T04:06:19;3.90;;;1.87;;
29200;SDS011;16244;51.956;12.980;2023-03-29T04:08:48;2.93;;;1.40;;
29200;SDS011;16244;51.956;12.980;2023-03-29T04:11:16;5.17;;;2.03;;
29200;SDS011;16244;51.956;12.980;2023-03-29T04:13:44;1.77;;;1.67;;
29200;SDS011;16244;51.956;12.980;2023-03-29T04:16:12;3.70;;;1.70;;
29200;SDS011;16244;51.956;12.980;2023-03-29T04:18:39;4.10;;;2.20;;
29200;SDS011;16244;51.956;12.980;2023-03-29T04:21:07;5.73;;;1.43;;
29200;SDS011;16244;51.956;12.980;2023-03-29T04:23:34;10.63;;;2.10;;
29200;SDS011;16244;51.956;12.980;2023-03-29T04:26:03;7.40;;;1.90;;
29200;SDS011;16244;51.956;12.980;2023-03-29T04:28:31;18.63;;;8.53;;
29200;SDS011;16244;51.956;12.980;2023-03-29T04:30:58;4.63;;;3.73;;
29200;SDS011;16244;51.956;12.980;2023-03-29T04:33:26;2.77;;;2.57;;
29200;SDS011;16244;51.956;12.980;2023-03-29T04:35:54;3.07;;;2.83;;
29200;SDS011;16244;51.956;12.980;2023-03-29T04:38:22;19.90;;;7.90;;
29200;SDS011;16244;51.956;12.980;2023-03-29T04:40:49;3.13;;;2.53;;
29200;SDS011;16244;51.956;12.980;2023-03-29T04:43:18;5.20;;;2.43;;
29200;SDS011;16244;51.956;12.980;2023-03-29T04:45:47;2.40;;;1.67;;
29200;SDS011;16244;51.956;12.980;2023-03-29T04:48:14;4.77;;;1.77;;
29200;SDS011;16244;51.956;12.980;2023-03-29T04:50:44;5.30;;;2.30;;
29200;SDS011;16244;51.956;12.980;2023-03-29T04:53:12;8.50;;;2.80;;
29200;SDS011;16244;51.956;12.980;2023-03-29T04:55:39;3.00;;;2.80;;
29200;SDS011;16244;51.956;12.980;2023-03-29T04:58:07;3.20;;;2.80;;
29200;SDS011;16244;51.956;12.980;2023-03-29T05:00:36;11.10;;;6.90;;
29200;SDS011;16244;51.956;12.980;2023-03-29T05:03:03;11.90;;;7.40;;
29200;SDS011;16244;51.956;12.980;2023-03-29T05:05:32;10.97;;;3.63;;
29200;SDS011;16244;51.956;12.980;2023-03-29T05:07:59;6.17;;;4.40;;
29200;SDS011;16244;51.956;12.980;2023-03-29T05:10:28;15.87;;;6.30;;
29200;SDS011;16244;51.956;12.980;2023-03-29T05:12:55;11.07;;;5.10;;
29200;SDS011;16244;51.956;12.980;2023-03-29T05:15:23;10.17;;;5.17;;
29200;SDS011;16244;51.956;12.980;2023-03-29T05:17:52;10.10;;;4.70;;
29200;SDS011;16244;51.956;12.980;2023-03-29T05:20:19;3.83;;;3.50;;
29200;SDS011;16244;51.956;12.980;2023-03-29T05:22:47;11.23;;;3.10;;
29200;SDS011;16244;51.956;12.980;2023-03-29T05:25:15;3.30;;;3.00;;
29200;SDS011;16244;51.956;12.980;2023-03-29T05:27:43;4.90;;;4.20;;
29200;SDS011;16244;51.956;12.980;2023-03-29T05:30:11;5.83;;;3.70;;
29200;SDS011;16244;51.956;12.980;2023-03-29T05:32:40;3.50;;;3.30;;
29200;SDS011;16244;51.956;12.980;2023-03-29T05:35:09;3.23;;;2.83;;
29200;SDS011;16244;51.956;12.980;2023-03-29T05:37:37;4.53;;;3.00;;
29200;SDS011;16244;51.956;12.980;2023-03-29T05:40:05;2.07;;;1.90;;
29200;SDS011;16244;51.956;12.980;2023-03-29T05:42:35;4.13;;;1.60;;
29200;SDS011;16244;51.956;12.980;2023-03-29T05:45:03;6.30;;;2.30;;
29200;SDS011;16244;51.956;12.980;2023-03-29T05:47:32;4.33;;;1.67;;
29200;SDS011;16244;51.956;12.980;2023-03-29T05:49:59;2.07;;;1.90;;
29200;SDS011;16244;51.956;12.980;2023-03-29T05:52:28;7.10;;;1.70;;
29200;SDS011;16244;51.956;12.980;2023-03-29T05:54:56;2.90;;;2.20;;
29200;SDS011;16244;51.956;12.980;2023-03-29T05:57:23;3.80;;;2.50;;
29200;SDS011;16244;51.956;12.980;2023-03-29T05:59:51;3.17;;;2.87;;
29200;SDS011;16244;51.956;12.980;2023-03-29T06:02:19;4.20;;;1.87;;
29200;SDS011;16244;51.956;12.980;2023-03-29T06:04:47;2.77;;;1.63;;
29200;SDS011;16244;51.956;12.980;2023-03-29T06:07:14;4.70;;;1.57;;
29200;SDS011;16244;51.956;12.980;2023-03-29T06:09:43;2.40;;;1.43;;
29200;SDS011;16244;51.956;12.980;2023-03-29T06:12:11;2.33;;;1.43;;
29200;SDS011;16244;51.956;12.980;2023-03-29T06:14:38;4.20;;;1.10;;
29200;SDS011;16244;51.956;12.980;2023-03-29T06:17:06;5.50;;;1.70;;
29200;SDS011;16244;51.956;12.980;2023-03-29T06:19:33;4.20;;;1.27;;
29200;SDS011;16244;51.956;12.980;2023-03-29T06:22:01;3.37;;;2.57;;
29200;SDS011;16244;51.956;12.980;2023-03-29T06:24:29;5.20;;;1.97;;
29200;SDS011;16244;51.956;12.980;2023-03-29T06:26:57;1.80;;;1.67;;
29200;SDS011;16244;51.956;12.980;2023-03-29T06:29:25;2.50;;;1.33;;
29200;SDS011;16244;51.956;12.980;2023-03-29T06:31:52;1.80;;;1.30;;
29200;SDS011;16244;51.956;12.980;2023-03-29T06:34:21;2.07;;;1.10;;
29200;SDS011;16244;51.956;12.980;2023-03-29T06:36:48;1.63;;;1.50;;
29200;SDS011;16244;51.956;12.980;2023-03-29T06:39:17;2.70;;;2.13;;
29200;SDS011;16244;51.956;12.980;2023-03-29T06:41:45;2.00;;;1.20;;
29200;SDS011;16244;51.956;12.980;2023-03-29T06:44:14;1.43;;;1.33;;
29200;SDS011;16244;51.956;12.980;2023-03-29T06:46:42;6.67;;;1.40;;
29200;SDS011;16244;51.956;12.980;2023-03-29T06:49:09;3.13;;;1.37;;
29200;SDS011;16244;51.956;12.980;2023-03-29T06:51:37;2.73;;;1.00;;
29200;SDS011;16244;51.956;12.980;2023-03-29T06:54:05;2.60;;;1.87;;
29200;SDS011;16244;51.956;12.980;2023-03-29T06:56:32;3.83;;;1.40;;
29200;SDS011;16244;51.956;12.980;2023-03-29T06:58:59;9.73;;;1.53;;
29200;SDS011;16244;51.956;12.980;2023-03-29T07:01:28;5.80;;;2.70;;
29200;SDS011;16244;51.956;12.980;2023-03-29T07:03:56;10.77;;;3.97;;
29200;SDS011;16244;51.956;12.980;2023-03-29T07:06:28;5.60;;;3.10;;
29200;SDS011;16244;51.956;12.980;2023-03-29T07:08:56;10.20;;;2.70;;
29200;SDS011;16244;51.956;12.980;2023-03-29T07:11:26;4.40;;;1.80;;
29200;SDS011;16244;51.956;12.980;2023-03-29T07:13:53;6.57;;;2.07;;
29200;SDS011;16244;51.956;12.980;2023-03-29T07:16:21;2.63;;;1.77;;
29200;SDS011;16244;51.956;12.980;2023-03-29T07:18:50;2.87;;;2.13;;
29200;SDS011;16244;51.956;12.980;2023-03-29T07:21:17;1.87;;;1.70;;
29200;SDS011;16244;51.956;12.980;2023-03-29T07:23:45;6.10;;;1.37;;
29200;SDS011;16244;51.956;12.980;2023-03-29T07:26:13;1.23;;;1.20;;
29200;SDS011;16244;51.956;12.980;2023-03-29T07:28:41;1.70;;;1.60;;
29200;SDS011;16244;51.956;12.980;2023-03-29T07:31:09;2.63;;;1.20;;
29200;SDS011;16244;51.956;12.980;2023-03-29T07:33:38;1.53;;;1.13;;
29200;SDS011;16244;51.956;12.980;2023-03-29T07:36:07;2.03;;;1.17;;
29200;SDS011;16244;51.956;12.980;2023-03-29T07:38:35;4.87;;;2.07;;
29200;SDS011;16244;51.956;12.980;2023-03-29T07:41:04;2.70;;;1.70;;
29200;SDS011;16244;51.956;12.980;2023-03-29T07:43:32;1.80;;;1.70;;
29200;SDS011;16244;51.956;12.980;2023-03-29T07:46:00;1.57;;;1.47;;
29200;SDS011;16244;51.956;12.980;2023-03-29T07:48:29;2.80;;;1.97;;
29200;SDS011;16244;51.956;12.980;2023-03-29T07:50:57;5.53;;;3.87;;
29200;SDS011;16244;51.956;12.980;2023-03-29T07:53:26;5.50;;;2.03;;
29200;SDS011;16244;51.956;12.980;2023-03-29T07:55:54;6.00;;;1.87;;
29200;SDS011;16244;51.956;12.980;2023-03-29T07:58:22;4.00;;;1.33;;
29200;SDS011;16244;51.956;12.980;2023-03-29T08:00:50;1.40;;;1.30;;
29200;SDS011;16244;51.956;12.980;2023-03-29T08:03:18;2.30;;;1.43;;
29200;SDS011;16244;51.956;12.980;2023-03-29T08:05:46;1.87;;;1.77;;
29200;SDS011;16244;51.956;12.980;2023-03-29T08:08:13;1.57;;;1.47;;
29200;SDS011;16244;51.956;12.980;2023-03-29T08:10:42;1.70;;;1.67;;
29200;SDS011;16244;51.956;12.980;2023-03-29T08:13:10;1.83;;;1.67;;
29200;SDS011;16244;51.956;12.980;2023-03-29T08:15:38;4.00;;;2.10;;
29200;SDS011;16244;51.956;12.980;2023-03-29T08:18:10;2.03;;;1.70;;
29200;SDS011;16244;51.956;12.980;2023-03-29T08:20:38;3.70;;;2.07;;
29200;SDS011;16244;51.956;12.980;2023-03-29T08:23:06;3.37;;;1.93;;
29200;SDS011;16244;51.956;12.980;2023-03-29T08:25:34;3.80;;;1.90;;
29200;SDS011;16244;51.956;12.980;2023-03-29T08:28:03;5.03;;;1.70;;
29200;SDS011;16244;51.956;12.980;2023-03-29T08:30:31;2.00;;;1.90;;
29200;SDS011;16244;51.956;12.980;2023-03-29T08:32:58;1.77;;;1.77;;
29200;SDS011;16244;51.956;12.980;2023-03-29T08:35:26;6.30;;;2.30;;
29200;SDS011;16244;51.956;12.980;2023-03-29T08:37:54;3.70;;;1.83;;
29200;SDS011;16244;51.956;12.980;2023-03-29T08:40:22;2.97;;;1.93;;
29200;SDS011;16244;51.956;12.980;2023-03-29T08:45:59;2.23;;;2.13;;
29200;SDS011;16244;51.956;12.980;2023-03-29T08:48:34;4.30;;;2.60;;
29200;SDS011;16244;51.956;12.980;2023-03-29T08:51:09;2.63;;;2.50;;
29200;SDS011;16244;51.956;12.980;2023-03-29T08:53:42;1.70;;;1.70;;
29200;SDS011;16244;51.956;12.980;2023-03-29T08:56:18;2.70;;;2.50;;
29200;SDS011;16244;51.956;12.980;2023-03-29T08:58:51;5.47;;;2.40;;
29200;SDS011;16244;51.956;12.980;2023-03-29T09:01:21;2.60;;;2.40;;
29200;SDS011;16244;51.956;12.980;2023-03-29T09:03:54;7.17;;;4.20;;
29200;SDS011;16244;51.956;12.980;2023-03-29T09:06:29;3.63;;;2.80;;
29200;SDS011;16244;51.956;12.980;2023-03-29T09:08:56;3.23;;;2.33;;
29200;SDS011;16244;51.956;12.980;2023-03-29T09:11:31;3.13;;;2.90;;
29200;SDS011;16244;51.956;12.980;2023-03-29T09:14:21;2.57;;;2.47;;
29200;SDS011;16244;51.956;12.980;2023-03-29T09:17:06;5.23;;;2.17;;
29200;SDS011;16244;51.956;12.980;2023-03-29T09:19:42;9.03;;;2.30;;
29200;SDS011;16244;51.956;12.980;2023-03-29T09:22:21;3.10;;;3.00;;
29200;SDS011;16244;51.956;12.980;2023-03-29T09:25:01;2.83;;;2.63;;
29200;SDS011;16244;51.956;12.980;2023-03-29T09:27:37;4.50;;;3.70;;
29200;SDS011;16244;51.956;12.980;2023-03-29T09:30:16;3.67;;;3.47;;
29200;SDS011;16244;51.956;12.980;2023-03-29T09:32:51;3.67;;;3.47;;
29200;SDS011;16244;51.956;12.980;2023-03-29T09:35:21;4.23;;;2.80;;
29200;SDS011;16244;51.956;12.980;2023-03-29T09:37:52;3.97;;;3.60;;
29200;SDS011;16244;51.956;12.980;2023-03-29T09:40:21;3.63;;;3.43;;
29200;SDS011;16244;51.956;12.980;2023-03-29T09:42:52;2.53;;;2.53;;
29200;SDS011;16244;51.956;12.980;2023-03-29T09:45:23;2.87;;;2.77;;
29200;SDS011;16244;51.956;12.980;2023-03-29T09:47:51;2.93;;;2.47;;
29200;SDS011;16244;51.956;12.980;2023-03-29T09:50:23;3.33;;;2.47;;
29200;SDS011;16244;51.956;12.980;2023-03-29T09:52:56;2.97;;;2.77;;
29200;SDS011;16244;51.956;12.980;2023-03-29T09:55:25;5.37;;;3.20;;
29200;SDS011;16244;51.956;12.980;2023-03-29T09:58:18;4.90;;;2.73;;
29200;SDS011;16244;51.956;12.980;2023-03-29T10:00:51;5.40;;;4.40;;
29200;SDS011;16244;51.956;12.980;2023-03-29T10:03:20;5.80;;;2.50;;
29200;SDS011;16244;51.956;12.980;2023-03-29T10:05:48;5.10;;;3.13;;
29200;SDS011;16244;51.956;12.980;2023-03-29T10:08:21;4.13;;;2.73;;
29200;SDS011;16244;51.956;12.980;2023-03-29T10:10:53;4.50;;;2.73;;
29200;SDS011;16244;51.956;12.980;2023-03-29T10:13:25;3.80;;;2.90;;
29200;SDS011;16244;51.956;12.980;2023-03-29T10:16:03;6.10;;;3.27;;
29200;SDS011;16244;51.956;12.980;2023-03-29T10:18:32;4.60;;;4.20;;
29200;SDS011;16244;51.956;12.980;2023-03-29T10:21:08;4.70;;;3.33;;
29200;SDS011;16244;51.956;12.980;2023-03-29T10:23:39;4.33;;;4.03;;
29200;SDS011;16244;51.956;12.980;2023-03-29T10:26:09;3.60;;;3.47;;
29200;SDS011;16244;51.956;12.980;2023-03-29T10:28:42;3.37;;;3.17;;
29200;SDS011;16244;51.956;12.980;2023-03-29T10:31:14;2.77;;;2.53;;
29200;SDS011;16244;51.956;12.980;2023-03-29T10:33:44;5.17;;;3.30;;
29200;SDS011;16244;51.956;12.980;2023-03-29T10:36:17;4.50;;;3.40;;
29200;SDS011;16244;51.956;12.980;2023-03-29T10:38:47;4.70;;;4.50;;
29200;SDS011;16244;51.956;12.980;2023-03-29T10:41:16;3.80;;;3.10;;
29200;SDS011;16244;51.956;12.980;2023-03-29T10:43:47;2.87;;;2.67;;
29200;SDS011;16244;51.956;12.980;2023-03-29T10:46:21;6.30;;;3.43;;
29200;SDS011;16244;51.956;12.980;2023-03-29T10:48:54;8.33;;;3.50;;
29200;SDS011;16244;51.956;12.980;2023-03-29T10:51:23;4.07;;;3.37;;
29200;SDS011;16244;51.956;12.980;2023-03-29T10:53:55;5.20;;;4.73;;
29200;SDS011;16244;51.956;12.980;2023-03-29T10:56:30;3.97;;;3.70;;
29200;SDS011;16244;51.956;12.980;2023-03-29T10:59:08;5.23;;;4.23;;
29200;SDS011;16244;51.956;12.980;2023-03-29T11:01:52;4.90;;;3.90;;
29200;SDS011;16244;51.956;12.980;2023-03-29T11:04:34;3.43;;;3.23;;
29200;SDS011;16244;51.956;12.980;2023-03-29T11:07:13;4.10;;;3.90;;
29200;SDS011;16244;51.956;12.980;2023-03-29T11:09:58;4.20;;;3.97;;
29200;SDS011;16244;51.956;12.980;2023-03-29T11:12:33;3.93;;;3.53;;
29200;SDS011;16244;51.956;12.980;2023-03-29T11:15:16;3.40;;;3.20;;
29200;SDS011;16244;51.956;12.980;2023-03-29T11:18:01;3.10;;;2.60;;
29200;SDS011;16244;51.956;12.980;2023-03-29T11:20:42;3.70;;;3.40;;
29200;SDS011;16244;51.956;12.980;2023-03-29T11:23:17;4.00;;;3.70;;
29200;SDS011;16244;51.956;12.980;2023-03-29T11:26:00;2.57;;;2.40;;
29200;SDS011;16244;51.956;12.980;2023-03-29T11:28:37;2.63;;;2.33;;
29200;SDS011;16244;51.956;12.980;2023-03-29T11:31:11;3.50;;;3.27;;
29200;SDS011;16244;51.956;12.980;2023-03-29T11:33:50;2.57;;;2.37;;
29200;SDS011;16244;51.956;12.980;2023-03-29T11:36:24;2.83;;;2.60;;
29200;SDS011;16244;51.956;12.980;2023-03-29T11:39:00;3.00;;;2.90;;
29200;SDS011;16244;51.956;12.980;2023-03-29T11:41:34;3.30;;;3.10;;
29200;SDS011;16244;51.956;12.980;2023-03-29T11:44:08;2.20;;;2.10;;
29200;SDS011;16244;51.956;12.980;2023-03-29T11:46:41;2.63;;;2.47;;
29200;SDS011;16244;51.956;12.980;2023-03-29T11:49:15;3.20;;;3.00;;
29200;SDS011;16244;51.956;12.980;2023-03-29T11:51:47;2.87;;;2.60;;
29200;SDS011;16244;51.956;12.980;2023-03-29T11:54:21;4.17;;;2.10;;
29200;SDS011;16244;51.956;12.980;2023-03-29T11:56:54;7.40;;;2.53;;
29200;SDS011;16244;51.956;12.980;2023-03-29T11:59:26;3.27;;;2.80;;
29200;SDS011;16244;51.956;12.980;2023-03-29T12:01:59;2.80;;;2.60;;
29200;SDS011;16244;51.956;12.980;2023-03-29T12:04:33;2.17;;;2.07;;
29200;SDS011;16244;51.956;12.980;2023-03-29T12:07:07;2.60;;;2.50;;
29200;SDS011;16244;51.956;12.980;2023-03-29T12:09:39;9.03;;;2.43;;
29200;SDS011;16244;51.956;12.980;2023-03-29T12:12:12;3.53;;;3.23;;
29200;SDS011;16244;51.956;12.980;2023-03-29T12:14:46;3.50;;;3.30;;
29200;SDS011;16244;51.956;12.980;2023-03-29T12:17:22;5.20;;;3.00;;
29200;SDS011;16244;51.956;12.980;2023-03-29T12:19:58;2.50;;;2.40;;
29200;SDS011;16244;51.956;12.980;2023-03-29T12:22:30;3.23;;;3.03;;
29200;SDS011;16244;51.956;12.980;2023-03-29T12:24:58;3.00;;;2.87;;
29200;SDS011;16244;51.956;12.980;2023-03-29T12:27:28;4.00;;;2.80;;
29200;SDS011;16244;51.956;12.980;2023-03-29T12:30:06;2.80;;;2.60;;
29200;SDS011;16244;51.956;12.980;2023-03-29T12:33:07;3.13;;;2.93;;
29200;SDS011;16244;51.956;12.980;2023-03-29T12:35:47;3.07;;;2.80;;
29200;SDS011;16244;51.956;12.980;2023-03-29T12:38:22;3.03;;;2.83;;
29200;SDS011;16244;51.956;12.980;2023-03-29T12:40:53;4.07;;;2.73;;
29200;SDS011;16244;51.956;12.980;2023-03-29T12:43:23;5.97;;;3.47;;
29200;SDS011;16244;51.956;12.980;2023-03-29T12:45:53;3.20;;;3.03;;
29200;SDS011;16244;51.956;12.980;2023-03-29T12:48:24;3.80;;;3.60;;
29200;SDS011;16244;51.956;12.980;2023-03-29T12:50:58;3.17;;;2.80;;
29200;SDS011;16244;51.956;12.980;2023-03-29T12:53:30;3.73;;;3.43;;
29200;SDS011;16244;51.956;12.980;2023-03-29T12:56:11;4.40;;;4.10;;
29200;SDS011;16244;51.956;12.980;2023-03-29T12:58:51;3.40;;;3.20;;
29200;SDS011;16244;51.956;12.980;2023-03-29T13:01:31;3.97;;;3.67;;
29200;SDS011;16244;51.956;12.980;2023-03-29T13:04:11;2.70;;;2.60;;
29200;SDS011;16244;51.956;12.980;2023-03-29T13:06:54;7.40;;;2.43;;
29200;SDS011;16244;51.956;12.980;2023-03-29T13:09:28;2.80;;;2.80;;
29200;SDS011;16244;51.956;12.980;2023-03-29T13:12:04;3.23;;;3.03;;
29200;SDS011;16244;51.956;12.980;2023-03-29T13:14:34;3.10;;;2.90;;
29200;SDS011;16244;51.956;12.980;2023-03-29T13:17:08;3.10;;;3.00;;
29200;SDS011;16244;51.956;12.980;2023-03-29T13:19:40;9.63;;;3.43;;
29200;SDS011;16244;51.956;12.980;2023-03-29T13:22:18;7.13;;;3.00;;
29200;SDS011;16244;51.956;12.980;2023-03-29T13:24:56;4.57;;;4.17;;
29200;SDS011;16244;51.956;12.980;2023-03-29T13:27:33;4.53;;;4.23;;
29200;SDS011;16244;51.956;12.980;2023-03-29T13:30:24;6.70;;;3.60;;
29200;SDS011;16244;51.956;12.980;2023-03-29T13:33:02;2.90;;;2.80;;
29200;SDS011;16244;51.956;12.980;2023-03-29T13:35:42;3.07;;;2.97;;
29200;SDS011;16244;51.956;12.980;2023-03-29T13:38:19;3.70;;;3.47;;
29200;SDS011;16244;51.956;12.980;2023-03-29T13:40:59;2.20;;;2.20;;
29200;SDS011;16244;51.956;12.980;2023-03-29T13:43:29;3.17;;;2.97;;
29200;SDS011;16244;51.956;12.980;2023-03-29T13:46:03;12.70;;;3.60;;
29200;SDS011;16244;51.956;12.980;2023-03-29T13:48:44;5.70;;;3.40;;
29200;SDS011;16244;51.956;12.980;2023-03-29T13:51:20;6.17;;;3.70;;
29200;SDS011;16244;51.956;12.980;2023-03-29T13:53:56;3.90;;;3.60;;
29200;SDS011;16244;51.956;12.980;2023-03-29T13:56:30;3.37;;;3.27;;
29200;SDS011;16244;51.956;12.980;2023-03-29T13:59:04;3.43;;;3.33;;
29200;SDS011;16244;51.956;12.980;2023-03-29T14:01:38;4.40;;;4.10;;
29200;SDS011;16244;51.956;12.980;2023-03-29T14:04:12;3.60;;;3.30;;
29200;SDS011;16244;51.956;12.980;2023-03-29T14:06:43;4.30;;;4.20;;
29200;SDS011;16244;51.956;12.980;2023-03-29T14:09:19;4.17;;;3.80;;
29200;SDS011;16244;51.956;12.980;2023-03-29T14:11:49;4.00;;;3.90;;
29200;SDS011;16244;51.956;12.980;2023-03-29T14:14:19;5.00;;;4.60;;
29200;SDS011;16244;51.956;12.980;2023-03-29T14:16:48;5.00;;;4.60;;
29200;SDS011;16244;51.956;12.980;2023-03-29T14:19:17;4.23;;;4.03;;
29200;SDS011;16244;51.956;12.980;2023-03-29T14:21:47;4.80;;;4.30;;
29200;SDS011;16244;51.956;12.980;2023-03-29T14:24:19;5.53;;;5.13;;
29200;SDS011;16244;51.956;12.980;2023-03-29T14:26:47;5.17;;;4.77;;
29200;SDS011;16244;51.956;12.980;2023-03-29T14:29:15;5.57;;;5.07;;
29200;SDS011;16244;51.956;12.980;2023-03-29T14:31:45;3.70;;;3.50;;
29200;SDS011;16244;51.956;12.980;2023-03-29T14:34:13;3.40;;;3.30;;
29200;SDS011;16244;51.956;12.980;2023-03-29T14:36:42;3.70;;;3.40;;
29200;SDS011;16244;51.956;12.980;2023-03-29T14:39:11;3.83;;;3.63;;
29200;SDS011;16244;51.956;12.980;2023-03-29T14:41:47;3.20;;;3.10;;
29200;SDS011;16244;51.956;12.980;2023-03-29T14:44:16;4.10;;;4.00;;
29200;SDS011;16244;51.956;12.980;2023-03-29T14:46:46;8.20;;;6.27;;
29200;SDS011;16244;51.956;12.980;2023-03-29T14:49:15;3.87;;;3.67;;
29200;SDS011;16244;51.956;12.980;2023-03-29T14:51:44;3.10;;;2.87;;
29200;SDS011;16244;51.956;12.980;2023-03-29T14:54:15;3.40;;;3.30;;
29200;SDS011;16244;51.956;12.980;2023-03-29T14:56:48;3.53;;;3.43;;
29200;SDS011;16244;51.956;12.980;2023-03-29T14:59:26;4.37;;;3.50;;